Time;durP1;ratioP1;P1;durP2;ratioP2;P2;SDS_P1;SDS_P2;PMS_P1;PMS_P2;Temp;Humidity;BMP_temperature;BMP_pressure;BME280_temperature;BME280_humidity;BME280_pressure;Samples;Min_cycle;Max_cycle;Signal;HPM_P1;HPM_P2
2023/09/13 00:01:40;;;;;;;11.65;6.53;;;18.80;99.90;;;;;;6092346;23;20014;-71
2023/09/13 00:04:06;;;;;;;9.38;6.50;;;18.70;99.90;;;;;;6119906;23;20061;-71
2023/09/13 00:06:31;;;;;;;12.65;6.45;;;18.70;99.90;;;;;;6117041;23;20018;-71
2023/09/13 00:08:57;;;;;;;10.98;6.35;;;18.70;99.90;;;;;;6092338;23;20046;-71
2023/09/13 00:11:22;;;;;;;16.40;6.20;;;18.60;99.90;;;;;;6068790;23;20025;-71
2023/09/13 00:13:48;;;;;;;13.15;5.97;;;18.70;99.90;;;;;;6120263;23;20025;-71
2023/09/13 00:16:14;;;;;;;13.00;5.97;;;18.70;99.90;;;;;;6093197;23;20097;-71
2023/09/13 00:18:39;;;;;;;10.65;5.30;;;18.70;99.90;;;;;;6118154;23;20025;-71
2023/09/13 00:21:09;;;;;;;12.65;5.10;;;18.70;99.90;;;;;;6092613;23;20022;-71
2023/09/13 00:23:35;;;;;;;11.57;4.70;;;18.70;99.90;;;;;;6092064;23;20018;-71
2023/09/13 00:26:01;;;;;;;16.02;5.40;;;18.60;99.90;;;;;;6092685;23;20111;-71
2023/09/13 00:28:26;;;;;;;10.98;4.45;;;18.70;99.90;;;;;;6093835;23;20022;-71
2023/09/13 00:30:52;;;;;;;10.30;4.13;;;18.60;99.90;;;;;;6093348;23;20018;-71
2023/09/13 00:33:17;;;;;;;5.20;3.85;;;18.60;99.90;;;;;;6119351;23;20014;-71
2023/09/13 00:35:43;;;;;;;12.93;3.92;;;18.60;99.90;;;;;;6092606;23;20025;-72
2023/09/13 00:38:08;;;;;;;9.50;3.50;;;18.60;99.90;;;;;;6092088;23;20044;-71
2023/09/13 00:40:34;;;;;;;12.50;3.28;;;18.50;99.90;;;;;;6117110;23;20080;-71
2023/09/13 00:43:00;;;;;;;10.45;3.70;;;18.50;99.90;;;;;;6092539;23;20018;-71
2023/09/13 00:45:29;;;;;;;10.45;3.60;;;18.50;99.90;;;;;;6092874;23;20021;-71
2023/09/13 00:47:55;;;;;;;8.10;2.95;;;18.60;99.90;;;;;;6093133;23;20090;-71
2023/09/13 00:50:21;;;;;;;8.57;3.28;;;18.60;99.90;;;;;;6091586;23;20042;-71
2023/09/13 00:52:47;;;;;;;13.38;3.60;;;18.50;99.90;;;;;;6092510;23;20020;-71
2023/09/13 00:55:16;;;;;;;11.55;4.05;;;18.40;99.90;;;;;;6092849;23;20101;-71
2023/09/13 00:57:42;;;;;;;7.93;2.67;;;18.30;99.90;;;;;;6092704;23;20061;-71
2023/09/13 01:00:10;;;;;;;10.85;3.60;;;18.30;99.90;;;;;;6092147;23;20021;-71
2023/09/13 01:02:38;;;;;;;7.82;2.13;;;18.40;99.90;;;;;;6092587;23;20018;-71
2023/09/13 01:05:07;;;;;;;11.13;2.85;;;18.30;99.90;;;;;;6118713;23;20021;-71
2023/09/13 01:07:33;;;;;;;9.10;2.33;;;18.30;99.90;;;;;;6092283;23;20089;-71
2023/09/13 01:09:59;;;;;;;7.65;2.88;;;18.30;99.90;;;;;;6092317;23;20099;-71
2023/09/13 01:12:25;;;;;;;8.05;2.40;;;18.30;99.90;;;;;;6091615;23;20034;-71
2023/09/13 01:14:51;;;;;;;7.18;2.50;;;18.20;99.90;;;;;;6092535;23;20036;-71
2023/09/13 01:17:38;;;;;;;10.43;2.78;;;18.20;99.90;;;;;;6092523;23;20025;-71
2023/09/13 01:20:07;;;;;;;8.40;2.53;;;18.10;99.90;;;;;;6091740;23;20041;-71
2023/09/13 01:23:16;;;;;;;9.20;2.40;;;18.10;99.90;;;;;;6091657;23;20773;-71
2023/09/13 01:25:59;;;;;;;10.18;2.92;;;18.10;99.90;;;;;;6092095;23;20022;-71
2023/09/13 01:28:44;;;;;;;9.23;3.25;;;18.00;99.90;;;;;;6067198;23;20214;-71
2023/09/13 01:31:11;;;;;;;9.27;3.05;;;18.00;99.90;;;;;;6117678;23;20333;-71
2023/09/13 01:33:37;;;;;;;6.60;2.80;;;18.00;99.90;;;;;;6091250;23;20018;-71
2023/09/13 01:36:03;;;;;;;8.75;2.65;;;18.00;99.90;;;;;;6092199;23;20080;-71
2023/09/13 01:38:29;;;;;;;9.13;2.75;;;18.00;99.90;;;;;;6092367;23;20022;-71
2023/09/13 01:41:23;;;;;;;9.30;2.70;;;17.90;99.90;;;;;;6090757;23;20018;-71
2023/09/13 01:43:54;;;;;;;8.90;2.75;;;17.90;99.90;;;;;;6092397;23;20014;-71
2023/09/13 01:46:27;;;;;;;5.20;2.00;;;17.80;99.90;;;;;;6118207;23;20018;-71
2023/09/13 01:48:57;;;;;;;9.15;2.53;;;17.80;99.90;;;;;;6092984;23;20071;-71
2023/09/13 01:51:27;;;;;;;8.52;2.70;;;17.80;99.90;;;;;;6093282;23;20064;-71
2023/09/13 01:53:54;;;;;;;8.38;2.35;;;17.70;99.90;;;;;;6093491;23;20018;-71
2023/09/13 01:56:21;;;;;;;12.90;2.88;;;17.70;99.90;;;;;;6093241;23;20021;-71
2023/09/13 01:58:50;;;;;;;7.55;2.38;;;17.60;99.90;;;;;;6118392;23;20113;-71
2023/09/13 02:01:17;;;;;;;9.68;2.83;;;17.50;99.90;;;;;;6092906;23;20071;-71
2023/09/13 02:03:43;;;;;;;7.00;1.92;;;17.50;99.90;;;;;;6094300;23;20093;-71
2023/09/13 02:06:08;;;;;;;6.45;2.10;;;17.50;99.90;;;;;;6093041;23;20503;-71
2023/09/13 02:08:35;;;;;;;6.50;1.85;;;17.50;99.90;;;;;;6092672;23;20018;-71
2023/09/13 02:11:01;;;;;;;7.93;2.20;;;17.50;99.90;;;;;;6093335;23;20017;-71
2023/09/13 02:13:26;;;;;;;7.07;2.20;;;17.40;99.90;;;;;;6094123;23;20115;-71
2023/09/13 02:15:52;;;;;;;6.22;2.05;;;17.40;99.90;;;;;;6116256;23;20022;-71
2023/09/13 02:18:17;;;;;;;6.82;2.13;;;17.40;99.90;;;;;;6093736;23;20024;-71
2023/09/13 02:20:44;;;;;;;8.27;1.90;;;17.30;99.90;;;;;;6092069;23;20058;-71
2023/09/13 02:23:10;;;;;;;5.10;1.85;;;17.50;99.90;;;;;;6120452;23;20349;-71
2023/09/13 02:25:36;;;;;;;7.75;2.90;;;17.40;99.90;;;;;;6119449;23;20018;-71
2023/09/13 02:28:03;;;;;;;5.95;1.67;;;17.30;99.90;;;;;;6093702;23;20010;-71
2023/09/13 02:30:30;;;;;;;8.73;2.42;;;17.30;99.90;;;;;;6090911;23;20092;-71
2023/09/13 02:32:55;;;;;;;11.15;1.98;;;17.30;99.90;;;;;;6093133;23;20030;-71
2023/09/13 02:35:21;;;;;;;6.28;1.73;;;17.30;99.90;;;;;;6119212;23;20094;-71
2023/09/13 02:37:47;;;;;;;7.07;2.22;;;17.30;99.90;;;;;;6120201;23;20014;-71
2023/09/13 02:40:13;;;;;;;7.55;2.42;;;17.30;99.90;;;;;;6092362;23;20018;-71
2023/09/13 02:42:39;;;;;;;8.75;1.70;;;17.30;99.90;;;;;;6093018;23;20057;-71
2023/09/13 02:45:05;;;;;;;6.00;1.85;;;17.20;99.90;;;;;;6093363;23;20018;-71
2023/09/13 02:47:31;;;;;;;6.47;1.67;;;17.20;99.90;;;;;;6119341;23;20014;-71
2023/09/13 02:49:56;;;;;;;5.75;1.27;;;17.30;99.90;;;;;;6118885;23;20408;-71
2023/09/13 02:52:30;;;;;;;6.90;1.45;;;17.10;99.90;;;;;;6093195;23;20014;-71
2023/09/13 02:54:57;;;;;;;4.90;1.58;;;17.10;99.90;;;;;;6118602;23;20029;-71
2023/09/13 02:57:23;;;;;;;7.82;2.13;;;17.10;99.90;;;;;;6069240;23;20028;-71
2023/09/13 02:59:49;;;;;;;6.35;1.60;;;17.10;99.90;;;;;;6093072;23;20018;-71
2023/09/13 03:02:14;;;;;;;4.88;1.30;;;17.10;99.90;;;;;;6092542;23;20018;-71
2023/09/13 03:04:40;;;;;;;5.70;1.50;;;17.10;99.90;;;;;;6093675;23;20025;-71
2023/09/13 03:07:06;;;;;;;7.03;1.73;;;17.10;99.90;;;;;;6119129;23;20044;-72
2023/09/13 03:09:31;;;;;;;5.88;1.38;;;17.00;99.90;;;;;;6118042;23;20079;-71
2023/09/13 03:11:57;;;;;;;9.82;1.90;;;17.00;99.90;;;;;;6119207;23;20049;-71
2023/09/13 03:14:22;;;;;;;7.32;1.92;;;17.10;99.90;;;;;;6119621;23;20017;-71
2023/09/13 03:16:48;;;;;;;5.55;1.35;;;16.90;99.90;;;;;;6092887;23;20099;-71
2023/09/13 03:19:14;;;;;;;8.43;1.65;;;16.90;99.90;;;;;;6092231;23;20018;-71
2023/09/13 03:21:41;;;;;;;5.47;2.00;;;16.90;99.90;;;;;;6118841;23;20014;-71
2023/09/13 03:24:07;;;;;;;4.75;1.40;;;16.90;99.90;;;;;;6093420;23;20014;-71
2023/09/13 03:26:33;;;;;;;4.88;1.10;;;16.90;99.90;;;;;;6091955;23;20029;-71
2023/09/13 03:28:58;;;;;;;7.93;1.80;;;16.90;99.90;;;;;;6093235;23;20069;-71
2023/09/13 03:31:26;;;;;;;4.57;1.88;;;16.90;99.90;;;;;;6118569;23;20018;-71
2023/09/13 03:33:53;;;;;;;7.47;1.65;;;16.80;99.90;;;;;;6093751;23;20058;-71
2023/09/13 03:36:20;;;;;;;11.35;1.70;;;16.90;99.90;;;;;;6092731;23;20021;-71
2023/09/13 03:38:46;;;;;;;3.75;1.23;;;16.90;99.90;;;;;;6093185;23;20167;-71
2023/09/13 03:41:22;;;;;;;6.10;1.63;;;16.90;99.90;;;;;;6092490;23;20080;-71
2023/09/13 03:43:49;;;;;;;7.18;1.67;;;16.80;99.90;;;;;;6092819;23;20068;-71
2023/09/13 03:46:15;;;;;;;6.63;1.90;;;16.90;99.90;;;;;;6093508;23;20310;-71
2023/09/13 03:48:41;;;;;;;6.32;1.80;;;16.90;99.90;;;;;;6092808;23;20013;-71
2023/09/13 03:51:07;;;;;;;5.97;1.50;;;16.80;99.90;;;;;;6119154;23;20018;-71
2023/09/13 03:53:33;;;;;;;9.25;1.95;;;16.90;99.90;;;;;;6119734;23;20337;-71
2023/09/13 03:56:00;;;;;;;6.00;1.65;;;16.80;99.90;;;;;;6093398;23;20024;-71
2023/09/13 03:58:25;;;;;;;7.38;1.73;;;16.80;99.90;;;;;;6091594;23;20034;-71
2023/09/13 04:00:51;;;;;;;6.50;1.55;;;16.70;99.90;;;;;;6090063;23;20018;-71
2023/09/13 04:03:19;;;;;;;9.43;2.20;;;16.80;99.90;;;;;;6092801;23;20022;-71
2023/09/13 04:05:44;;;;;;;7.90;2.47;;;16.80;99.90;;;;;;6117767;23;20020;-71
2023/09/13 04:08:10;;;;;;;7.45;2.08;;;16.80;99.90;;;;;;6117465;23;20021;-71
2023/09/13 04:10:36;;;;;;;6.65;1.75;;;17.00;99.90;;;;;;6089728;23;20093;-71
2023/09/13 04:13:01;;;;;;;5.93;1.77;;;16.80;99.90;;;;;;6117050;23;20032;-71
2023/09/13 04:15:27;;;;;;;9.30;2.05;;;16.80;99.90;;;;;;6092268;23;20093;-71
2023/09/13 04:17:54;;;;;;;9.05;2.15;;;16.80;99.90;;;;;;6092128;23;20044;-71
2023/09/13 04:20:20;;;;;;;8.82;2.03;;;16.80;99.90;;;;;;6090155;23;20014;-71
2023/09/13 04:22:46;;;;;;;6.03;1.48;;;16.70;99.90;;;;;;6092651;23;20021;-71
2023/09/13 04:25:11;;;;;;;7.20;2.65;;;16.80;99.90;;;;;;6118101;23;20437;-71
2023/09/13 04:27:37;;;;;;;7.03;2.20;;;16.90;99.90;;;;;;6116202;23;20072;-71
2023/09/13 04:30:03;;;;;;;7.72;2.08;;;16.70;99.90;;;;;;6089721;23;20018;-71
2023/09/13 04:32:29;;;;;;;5.20;2.20;;;16.80;99.90;;;;;;6116785;23;20027;-71
2023/09/13 04:34:55;;;;;;;10.80;2.15;;;16.70;99.90;;;;;;6118297;23;20014;-71
2023/09/13 04:37:21;;;;;;;5.70;2.47;;;16.80;99.90;;;;;;6092654;23;20021;-71
2023/09/13 04:39:47;;;;;;;5.43;1.83;;;16.70;99.90;;;;;;6091373;23;20025;-71
2023/09/13 04:42:14;;;;;;;9.80;2.65;;;16.70;99.90;;;;;;6090793;23;20032;-71
2023/09/13 04:44:40;;;;;;;5.03;1.95;;;16.70;99.90;;;;;;6116456;23;20040;-71
2023/09/13 04:47:05;;;;;;;9.43;1.67;;;16.70;99.90;;;;;;6092455;23;20013;-71
2023/09/13 05:15:51;;;;;;;7.63;1.48;;;16.60;99.90;;;;;;6122571;23;20018;-69
2023/09/13 05:18:17;;;;;;;7.20;1.40;;;16.50;99.90;;;;;;6092325;23;20017;-70
2023/09/13 05:20:43;;;;;;;4.50;1.17;;;16.40;99.90;;;;;;6089550;23;20487;-70
2023/09/13 05:23:08;;;;;;;5.15;1.30;;;16.30;99.90;;;;;;6092054;23;20010;-70
2023/09/13 05:25:34;;;;;;;9.30;1.55;;;16.10;99.90;;;;;;6092671;23;20787;-70
2023/09/13 05:28:00;;;;;;;7.07;1.67;;;16.10;99.90;;;;;;6092410;23;20021;-70
2023/09/13 05:30:30;;;;;;;6.88;1.50;;;16.10;99.90;;;;;;6117921;23;20387;-70
2023/09/13 05:32:55;;;;;;;5.32;1.35;;;16.00;99.90;;;;;;6092527;23;20091;-70
2023/09/13 05:35:22;;;;;;;6.80;1.08;;;15.90;99.90;;;;;;6091978;23;20021;-70
2023/09/13 05:37:47;;;;;;;7.25;1.23;;;15.90;99.90;;;;;;6092991;23;20029;-70
2023/09/13 05:40:13;;;;;;;3.00;1.00;;;15.90;99.90;;;;;;6089582;23;20048;-70
2023/09/13 05:42:38;;;;;;;5.63;1.33;;;15.80;99.90;;;;;;6093149;23;20017;-70
2023/09/13 05:45:04;;;;;;;5.07;0.90;;;15.70;99.90;;;;;;6092983;23;20010;-70
2023/09/13 05:47:30;;;;;;;4.47;1.00;;;15.70;99.90;;;;;;6091318;23;20017;-70
2023/09/13 05:49:55;;;;;;;5.57;1.02;;;15.70;99.90;;;;;;6091390;23;20100;-70
2023/09/13 05:52:21;;;;;;;2.65;0.95;;;15.60;99.90;;;;;;6092632;23;20022;-70
2023/09/13 05:54:47;;;;;;;5.55;0.93;;;15.50;99.90;;;;;;6091674;23;20014;-70
2023/09/13 05:57:12;;;;;;;2.78;1.27;;;15.50;99.90;;;;;;6116202;23;20063;-70
2023/09/13 05:59:39;;;;;;;4.07;1.45;;;15.60;99.90;;;;;;6092570;23;20021;-70
2023/09/13 06:02:06;;;;;;;6.10;1.17;;;15.50;99.90;;;;;;6117574;23;20018;-70
2023/09/13 06:04:32;;;;;;;7.07;1.15;;;15.70;99.90;;;;;;6092379;23;20021;-71
2023/09/13 06:06:58;;;;;;;5.40;1.10;;;15.50;99.90;;;;;;6092298;23;20013;-70
2023/09/13 06:09:23;;;;;;;6.40;0.93;;;15.50;99.90;;;;;;6091243;23;20014;-71
2023/09/13 06:11:49;;;;;;;4.72;2.50;;;15.40;99.90;;;;;;6092441;23;20459;-71
2023/09/13 06:14:16;;;;;;;5.57;1.55;;;15.30;99.90;;;;;;6118714;23;20018;-71
2023/09/13 06:16:42;;;;;;;5.40;1.05;;;15.30;99.90;;;;;;6092723;23;20022;-71
2023/09/13 06:19:07;;;;;;;4.55;1.35;;;15.30;99.90;;;;;;6118594;23;20344;-71
2023/09/13 06:21:33;;;;;;;3.90;0.88;;;15.20;99.90;;;;;;6092742;23;20022;-71
2023/09/13 06:23:58;;;;;;;3.33;1.23;;;15.20;99.90;;;;;;6093276;23;20117;-71
2023/09/13 06:26:24;;;;;;;3.97;1.10;;;15.20;99.90;;;;;;6118685;23;20083;-71
2023/09/13 06:28:49;;;;;;;4.75;1.00;;;15.20;99.90;;;;;;6092717;23;20476;-71
2023/09/13 06:31:15;;;;;;;4.10;1.00;;;15.20;99.90;;;;;;6093037;23;20018;-70
2023/09/13 06:33:41;;;;;;;2.80;0.80;;;15.10;99.90;;;;;;6092918;23;20101;-71
2023/09/13 06:36:07;;;;;;;4.88;1.20;;;15.10;99.90;;;;;;6118896;23;20018;-71
2023/09/13 06:38:32;;;;;;;6.03;1.23;;;15.20;99.90;;;;;;6092179;23;20022;-70
2023/09/13 06:40:58;;;;;;;3.38;0.80;;;15.20;99.90;;;;;;6118491;23;20394;-70
2023/09/13 06:43:25;;;;;;;3.35;0.82;;;15.10;99.90;;;;;;6093546;23;20010;-70
2023/09/13 06:45:50;;;;;;;4.75;1.17;;;15.10;99.90;;;;;;6118768;23;20397;-71
2023/09/13 06:48:18;;;;;;;3.25;0.77;;;15.20;99.90;;;;;;6119504;23;20014;-70
2023/09/13 06:50:43;;;;;;;2.92;0.75;;;15.20;99.90;;;;;;6092002;23;20025;-70
2023/09/13 06:53:09;;;;;;;3.80;1.10;;;15.20;99.90;;;;;;6093269;23;20021;-70
2023/09/13 06:55:35;;;;;;;5.05;1.25;;;15.20;99.90;;;;;;6091629;23;20022;-70
2023/09/13 06:58:04;;;;;;;7.07;1.88;;;15.20;99.90;;;;;;6091643;23;20017;-70
2023/09/13 07:00:29;;;;;;;5.03;1.33;;;15.30;99.90;;;;;;6068197;23;20068;-70
2023/09/13 07:02:55;;;;;;;5.03;1.27;;;15.20;99.90;;;;;;6091655;23;20396;-70
2023/09/13 07:05:21;;;;;;;6.88;1.65;;;15.30;99.90;;;;;;6088172;23;20025;-70
2023/09/13 07:07:46;;;;;;;5.00;1.75;;;15.20;99.90;;;;;;6067290;23;20022;-70
2023/09/13 07:10:12;;;;;;;6.10;1.55;;;15.30;99.90;;;;;;6116596;23;20087;-71
2023/09/13 07:12:38;;;;;;;10.23;2.03;;;15.30;99.90;;;;;;6115854;23;20018;-70
2023/09/13 07:15:07;;;;;;;8.77;2.53;;;15.30;99.90;;;;;;6115740;23;20024;-70
2023/09/13 07:17:33;;;;;;;8.73;2.03;;;15.30;99.90;;;;;;6089387;23;20018;-70
2023/09/13 07:19:58;;;;;;;7.82;1.73;;;15.30;99.90;;;;;;6089658;23;20025;-71
2023/09/13 07:22:24;;;;;;;9.77;2.00;;;15.30;99.90;;;;;;6090597;23;20021;-70
2023/09/13 07:24:50;;;;;;;6.45;2.15;;;15.30;99.90;;;;;;6088618;23;20021;-70
2023/09/13 07:27:16;;;;;;;10.27;2.05;;;15.40;99.90;;;;;;6090074;23;20056;-70
2023/09/13 07:29:41;;;;;;;9.85;2.67;;;15.40;99.90;;;;;;6115363;23;20014;-70
2023/09/13 07:32:08;;;;;;;10.40;1.92;;;15.50;99.90;;;;;;6090283;23;20022;-70
2023/09/13 07:34:33;;;;;;;12.80;2.17;;;15.50;99.90;;;;;;6091076;23;20099;-71
2023/09/13 07:36:59;;;;;;;4.05;1.90;;;15.50;99.90;;;;;;6089987;23;20041;-70
2023/09/13 07:39:25;;;;;;;11.20;2.25;;;15.50;99.90;;;;;;6090083;23;20018;-71
2023/09/13 07:41:51;;;;;;;9.35;3.08;;;15.50;99.90;;;;;;6115275;23;20018;-70
2023/09/13 07:44:17;;;;;;;10.68;2.70;;;15.60;99.90;;;;;;6090305;23;20097;-70
2023/09/13 07:46:43;;;;;;;7.65;2.42;;;15.60;99.90;;;;;;6089740;23;20083;-70
2023/09/13 07:49:09;;;;;;;13.05;3.08;;;15.60;99.90;;;;;;6115749;23;20010;-70
2023/09/13 07:51:34;;;;;;;9.65;2.70;;;15.70;99.90;;;;;;6090799;23;20326;-70
2023/09/13 07:54:07;;;;;;;9.93;2.40;;;15.70;99.90;;;;;;6090840;23;20022;-71
2023/09/13 07:56:34;;;;;;;12.43;2.50;;;15.80;99.90;;;;;;6090513;23;20032;-70
2023/09/13 07:59:00;;;;;;;9.40;2.63;;;15.80;99.90;;;;;;6115432;23;20070;-70
2023/09/13 08:01:26;;;;;;;12.32;2.20;;;15.80;99.90;;;;;;6090649;23;20445;-70
2023/09/13 08:03:51;;;;;;;6.05;1.67;;;15.80;99.90;;;;;;6091178;23;20143;-70
2023/09/13 08:06:17;;;;;;;4.72;1.40;;;15.80;99.90;;;;;;6114527;23;20423;-70
2023/09/13 08:08:43;;;;;;;11.30;3.00;;;15.80;99.90;;;;;;6090222;23;20089;-70
2023/09/13 08:11:08;;;;;;;10.40;2.67;;;15.90;99.90;;;;;;6090976;23;20103;-70
2023/09/13 08:13:34;;;;;;;7.93;1.80;;;15.90;99.90;;;;;;6091262;23;20043;-70
2023/09/13 08:16:00;;;;;;;9.80;2.65;;;15.90;99.90;;;;;;6115320;23;20049;-70
2023/09/13 08:18:25;;;;;;;7.72;2.90;;;15.90;99.90;;;;;;6090350;23;20014;-70
2023/09/13 08:20:51;;;;;;;13.48;2.25;;;15.90;99.90;;;;;;6088890;23;20445;-70
2023/09/13 08:23:16;;;;;;;9.07;1.92;;;15.90;99.90;;;;;;6116039;23;20018;-71
2023/09/13 08:25:43;;;;;;;8.70;2.15;;;15.80;99.90;;;;;;6086941;23;20010;-70
2023/09/13 08:28:09;;;;;;;6.00;1.75;;;15.80;99.90;;;;;;6116373;23;20010;-70
2023/09/13 08:30:35;;;;;;;7.60;1.98;;;15.80;99.90;;;;;;6088596;23;20022;-70
2023/09/13 08:33:00;;;;;;;3.22;1.33;;;15.80;99.90;;;;;;6116221;23;20014;-71
2023/09/13 08:35:26;;;;;;;7.57;2.00;;;15.80;99.90;;;;;;6115404;23;20092;-70
2023/09/13 08:37:52;;;;;;;6.38;2.08;;;15.80;99.90;;;;;;6090267;23;20028;-70
2023/09/13 08:40:17;;;;;;;5.82;1.50;;;15.90;99.90;;;;;;6114423;23;20018;-70
2023/09/13 08:42:44;;;;;;;7.10;1.58;;;16.00;99.90;;;;;;6090178;23;20351;-71
2023/09/13 08:45:12;;;;;;;7.70;2.35;;;16.00;99.90;;;;;;6090339;23;20089;-70
2023/09/13 08:47:42;;;;;;;7.78;1.70;;;16.10;99.90;;;;;;6090043;23;20013;-70
2023/09/13 08:50:09;;;;;;;6.47;1.55;;;16.20;99.90;;;;;;6114374;23;20018;-70
2023/09/13 08:52:36;;;;;;;6.85;1.50;;;16.30;99.90;;;;;;6089576;23;20018;-70
2023/09/13 08:55:03;;;;;;;10.13;1.70;;;16.40;99.90;;;;;;6116452;23;20025;-71
2023/09/13 08:57:30;;;;;;;7.68;1.67;;;16.50;99.90;;;;;;6089875;23;20092;-70
2023/09/13 08:59:55;;;;;;;7.05;1.83;;;16.60;99.90;;;;;;6089758;23;20014;-70
2023/09/13 09:02:24;;;;;;;5.55;2.17;;;16.70;99.90;;;;;;6088081;23;20045;-70
2023/09/13 09:04:51;;;;;;;7.53;1.38;;;16.80;99.90;;;;;;6112576;23;20109;-71
2023/09/13 09:07:19;;;;;;;4.57;1.48;;;16.80;99.90;;;;;;6090064;23;20068;-70
2023/09/13 09:09:46;;;;;;;4.75;1.30;;;16.90;99.90;;;;;;6089571;23;20018;-70
2023/09/13 09:12:16;;;;;;;6.90;1.70;;;17.00;99.90;;;;;;6090503;23;20049;-70
2023/09/13 09:14:44;;;;;;;5.10;1.40;;;16.90;99.90;;;;;;6090762;23;20025;-70
2023/09/13 09:17:11;;;;;;;5.95;1.15;;;16.90;99.90;;;;;;6089007;23;20124;-70
2023/09/13 09:19:37;;;;;;;9.20;1.48;;;16.90;99.90;;;;;;6089118;23;20018;-70
2023/09/13 09:22:03;;;;;;;6.65;1.70;;;16.90;99.90;;;;;;6088842;23;20117;-70
2023/09/13 09:24:29;;;;;;;6.50;2.35;;;16.90;99.90;;;;;;6088179;23;20014;-71
2023/09/13 09:26:55;;;;;;;5.72;1.30;;;16.90;99.90;;;;;;6089828;23;20472;-71
2023/09/13 09:29:41;;;;;;;7.85;1.65;;;16.80;99.90;;;;;;6088950;23;20014;-71
2023/09/13 09:32:08;;;;;;;7.78;1.98;;;16.80;99.90;;;;;;6088480;23;20028;-70
2023/09/13 09:34:39;;;;;;;5.53;1.33;;;16.90;99.90;;;;;;6089857;23;20079;-70
2023/09/13 09:37:07;;;;;;;9.32;1.40;;;17.20;99.90;;;;;;6090952;23;20063;-71
2023/09/13 09:39:37;;;;;;;9.15;2.33;;;17.40;99.90;;;;;;6066754;23;20074;-70
2023/09/13 09:42:02;;;;;;;6.38;1.38;;;17.50;99.90;;;;;;6090857;23;20089;-70
2023/09/13 09:44:28;;;;;;;6.88;1.45;;;17.60;99.90;;;;;;6116107;23;20041;-70
2023/09/13 09:46:56;;;;;;;5.43;1.60;;;17.60;99.90;;;;;;6117147;23;20028;-70
2023/09/13 09:49:21;;;;;;;7.43;2.30;;;17.80;99.90;;;;;;6115447;23;20330;-70
2023/09/13 09:51:47;;;;;;;6.78;1.80;;;18.10;99.90;;;;;;6116693;23;20025;-70
2023/09/13 09:54:12;;;;;;;6.28;1.98;;;18.60;99.90;;;;;;6116216;23;20014;-71
2023/09/13 09:56:38;;;;;;;5.90;1.58;;;18.90;99.90;;;;;;6089648;23;20419;-70
2023/09/13 09:59:04;;;;;;;5.72;1.73;;;19.00;99.90;;;;;;6088845;23;20026;-70
2023/09/13 10:01:30;;;;;;;5.15;2.28;;;19.10;99.90;;;;;;6115737;23;20028;-71
2023/09/13 10:04:10;;;;;;;4.55;1.55;;;19.20;99.90;;;;;;6089008;23;20018;-71
2023/09/13 10:06:36;;;;;;;6.22;1.50;;;19.30;99.90;;;;;;6115360;23;20018;-70
2023/09/13 10:09:04;;;;;;;7.50;2.17;;;19.30;99.90;;;;;;6114549;23;20020;-71
2023/09/13 10:11:30;;;;;;;8.68;1.63;;;18.90;99.90;;;;;;6117144;23;20025;-71
2023/09/13 10:13:55;;;;;;;8.70;1.55;;;18.60;99.90;;;;;;6115893;23;20025;-71
2023/09/13 10:16:29;;;;;;;7.80;2.45;;;18.40;99.90;;;;;;6090719;23;20121;-71
2023/09/13 10:19:02;;;;;;;6.10;1.98;;;18.10;99.90;;;;;;6090874;23;20037;-71
2023/09/13 10:21:30;;;;;;;5.57;1.75;;;18.00;99.90;;;;;;6117024;23;20022;-71
2023/09/13 10:24:02;;;;;;;8.60;2.22;;;17.80;99.90;;;;;;6117707;23;20067;-71
2023/09/13 10:26:31;;;;;;;7.97;1.70;;;17.70;99.90;;;;;;6092276;23;20351;-71
2023/09/13 10:29:12;;;;;;;5.88;1.23;;;17.60;99.90;;;;;;6114033;23;20133;-70
2023/09/13 10:31:43;;;;;;;7.60;1.77;;;17.50;99.90;;;;;;6115305;23;20014;-70
2023/09/13 10:34:26;;;;;;;5.38;2.55;;;17.30;99.90;;;;;;6090026;23;20025;-70
2023/09/13 10:37:27;;;;;;;9.30;3.13;;;17.30;99.90;;;;;;6115068;23;20044;-70
2023/09/13 10:40:10;;;;;;;5.05;1.80;;;17.20;99.90;;;;;;6089580;23;20071;-70
2023/09/13 10:42:40;;;;;;;6.28;1.83;;;17.30;99.90;;;;;;6087941;23;20056;-70
2023/09/13 10:45:07;;;;;;;5.15;2.22;;;17.30;99.90;;;;;;6114811;23;20033;-70
2023/09/13 10:47:35;;;;;;;5.63;1.92;;;17.40;99.90;;;;;;6089527;23;20342;-70
2023/09/13 10:50:03;;;;;;;5.22;1.50;;;17.40;99.90;;;;;;6115258;23;20026;-70
2023/09/13 10:52:30;;;;;;;4.68;1.67;;;17.60;99.90;;;;;;6115430;23;20006;-70
2023/09/13 10:54:58;;;;;;;5.07;1.73;;;17.70;99.90;;;;;;6089464;23;20040;-70
2023/09/13 10:57:26;;;;;;;7.82;2.53;;;17.90;99.90;;;;;;6115101;23;20309;-70
2023/09/13 10:59:52;;;;;;;9.93;2.15;;;18.10;99.90;;;;;;6088259;23;20387;-70
2023/09/13 11:02:21;;;;;;;6.03;1.88;;;18.40;99.90;;;;;;6088987;23;20502;-70
2023/09/13 11:04:47;;;;;;;3.60;1.90;;;18.60;99.90;;;;;;6089355;23;20014;-70
2023/09/13 11:07:16;;;;;;;3.35;1.23;;;18.80;99.90;;;;;;6089137;23;20049;-70
2023/09/13 11:09:42;;;;;;;3.72;1.42;;;18.90;99.90;;;;;;6114523;23;20022;-70
2023/09/13 11:12:12;;;;;;;3.40;1.50;;;19.10;99.90;;;;;;6088780;23;20022;-71
2023/09/13 11:14:37;;;;;;;2.50;1.15;;;19.10;99.90;;;;;;6089157;23;20017;-70
2023/09/13 11:17:34;;;;;;;5.82;1.67;;;19.20;99.90;;;;;;6114087;23;20021;-71
2023/09/13 11:20:38;;;;;;;3.80;1.65;;;19.20;99.90;;;;;;6088075;23;20018;-70
2023/09/13 11:23:18;;;;;;;3.90;1.70;;;19.30;99.90;;;;;;6089562;23;20018;-70
2023/09/13 11:25:54;;;;;;;4.25;1.73;;;19.40;99.90;;;;;;6113442;23;20340;-70
2023/09/13 11:28:38;;;;;;;4.13;1.83;;;19.60;99.90;;;;;;6089637;23;20530;-70
2023/09/13 11:31:06;;;;;;;5.90;2.30;;;19.70;99.90;;;;;;6115148;23;20059;-70
2023/09/13 11:33:39;;;;;;;3.95;1.80;;;19.70;99.90;;;;;;6115156;23;20017;-70
2023/09/13 11:36:05;;;;;;;2.72;1.70;;;19.80;99.90;;;;;;6088851;23;20087;-70
2023/09/13 11:38:32;;;;;;;4.82;1.20;;;20.20;99.90;;;;;;6114887;23;20256;-70
2023/09/13 11:40:58;;;;;;;3.88;1.85;;;20.40;99.90;;;;;;6114369;23;20017;-70
2023/09/13 11:43:25;;;;;;;4.18;1.88;;;20.60;99.90;;;;;;6092412;23;20006;-70
2023/09/13 11:45:54;;;;;;;4.63;2.00;;;20.60;99.90;;;;;;6090990;23;20402;-70
2023/09/13 11:48:40;;;;;;;2.92;1.90;;;20.50;99.90;;;;;;6117517;23;20014;-70
2023/09/13 11:51:16;;;;;;;2.75;2.10;;;20.30;99.90;;;;;;6116853;23;20375;-70
2023/09/13 11:53:42;;;;;;;6.22;1.80;;;20.00;99.90;;;;;;6088832;23;20053;-70
2023/09/13 11:56:37;;;;;;;3.45;1.67;;;20.10;99.90;;;;;;6117641;23;20431;-70
2023/09/13 11:59:03;;;;;;;3.38;1.50;;;20.40;99.90;;;;;;6116926;23;20085;-70
2023/09/13 12:01:30;;;;;;;2.72;1.60;;;20.60;99.90;;;;;;6114840;23;20312;-70
2023/09/13 12:04:03;;;;;;;2.80;1.27;;;20.80;99.90;;;;;;6115169;23;20081;-70
2023/09/13 12:06:29;;;;;;;3.05;1.42;;;20.80;99.90;;;;;;6088026;23;20022;-70
2023/09/13 12:08:55;;;;;;;4.95;1.48;;;20.80;99.90;;;;;;6087718;23;20018;-70
2023/09/13 12:11:21;;;;;;;4.35;1.77;;;20.70;99.90;;;;;;6115386;23;20032;-70
2023/09/13 12:13:49;;;;;;;3.65;1.20;;;20.60;99.90;;;;;;6090040;23;20032;-70
2023/09/13 12:16:16;;;;;;;2.15;0.90;;;20.40;99.90;;;;;;6114580;23;20518;-70
2023/09/13 12:18:43;;;;;;;2.42;0.93;;;20.10;99.90;;;;;;6090931;23;20026;-70
2023/09/13 12:21:10;;;;;;;4.30;1.58;;;20.00;99.90;;;;;;6116477;23;20061;-70
2023/09/13 12:23:38;;;;;;;1.50;0.77;;;19.90;99.90;;;;;;6089522;23;20013;-70
2023/09/13 12:26:10;;;;;;;3.15;0.80;;;19.80;99.90;;;;;;6115541;23;20379;-70
2023/09/13 12:28:38;;;;;;;2.67;0.80;;;19.90;99.90;;;;;;6089757;23;20014;-70
2023/09/13 12:31:09;;;;;;;2.10;0.80;;;20.20;99.90;;;;;;6089534;23;20014;-71
2023/09/13 12:33:36;;;;;;;3.10;0.98;;;20.20;99.90;;;;;;6088752;23;20087;-71
2023/09/13 12:36:03;;;;;;;3.22;0.82;;;20.30;99.90;;;;;;6089285;23;20018;-70
2023/09/13 12:38:44;;;;;;;2.92;1.15;;;20.20;99.90;;;;;;6089067;23;20021;-70
2023/09/13 12:41:18;;;;;;;1.45;0.77;;;20.10;99.90;;;;;;6112157;23;20018;-70
2023/09/13 12:43:47;;;;;;;3.40;1.00;;;19.90;99.90;;;;;;6115863;23;20362;-71
2023/09/13 12:46:16;;;;;;;3.42;1.00;;;19.80;99.90;;;;;;6089637;23;20010;-70
2023/09/13 12:48:42;;;;;;;2.70;1.15;;;19.70;99.90;;;;;;6116185;23;20076;-70
2023/09/13 12:51:08;;;;;;;5.50;0.93;;;19.70;99.90;;;;;;6113251;23;20124;-70
2023/09/13 12:53:35;;;;;;;6.25;1.33;;;19.60;99.90;;;;;;6113289;23;20049;-71
2023/09/13 12:56:01;;;;;;;1.85;0.70;;;19.50;99.90;;;;;;6115088;23;20400;-71
2023/09/13 12:58:30;;;;;;;4.28;0.98;;;19.50;99.90;;;;;;6115756;23;20069;-70
2023/09/13 13:00:59;;;;;;;5.22;1.05;;;19.50;99.90;;;;;;6088214;23;20461;-70
2023/09/13 13:03:30;;;;;;;7.10;0.90;;;19.50;99.90;;;;;;6086376;23;20444;-70
2023/09/13 13:06:01;;;;;;;5.18;1.48;;;19.30;99.90;;;;;;6112579;23;20018;-70
2023/09/13 13:08:36;;;;;;;2.85;0.85;;;19.20;99.90;;;;;;6088520;23;20018;-70
2023/09/13 13:11:04;;;;;;;3.35;1.00;;;18.90;99.90;;;;;;6062961;23;20018;-70
2023/09/13 13:13:35;;;;;;;5.20;0.95;;;18.90;99.90;;;;;;6113806;23;20057;-70
2023/09/13 13:16:11;;;;;;;4.90;0.82;;;18.80;99.90;;;;;;6113073;23;20113;-70